createdAt,value
2018-09-03T00:00:40.391Z,17.10
2018-09-03T00:03:07.711Z,17.00
2018-09-03T00:05:35.170Z,17.00
2018-09-03T00:08:02.419Z,17.00
2018-09-03T00:10:29.663Z,16.90
2018-09-03T00:12:56.923Z,16.90
2018-09-03T00:15:24.421Z,16.90
2018-09-03T00:17:53.008Z,17.00
2018-09-03T00:20:20.639Z,17.00
2018-09-03T00:22:48.508Z,16.90
2018-09-03T00:25:15.787Z,16.90
2018-09-03T00:27:43.030Z,16.90
2018-09-03T00:30:10.283Z,16.90
2018-09-03T00:32:43.195Z,16.80
2018-09-03T00:35:16.305Z,16.90
2018-09-03T00:37:49.235Z,16.90
2018-09-03T00:41:20.976Z,16.90
2018-09-03T00:43:53.999Z,16.80
2018-09-03T00:46:27.191Z,16.90
2018-09-03T00:48:54.645Z,16.80
2018-09-03T00:51:22.305Z,16.80
2018-09-03T00:53:50.023Z,16.80
2018-09-03T00:56:17.241Z,16.80
2018-09-03T00:58:44.513Z,16.80
2018-09-03T01:01:11.867Z,16.80
2018-09-03T01:03:39.131Z,16.90
2018-09-03T01:06:06.403Z,16.80
2018-09-03T01:08:33.754Z,16.90
2018-09-03T01:11:00.937Z,16.90
2018-09-03T01:13:28.439Z,16.80
2018-09-03T01:15:56.518Z,16.90
2018-09-03T01:18:24.119Z,16.80
2018-09-03T01:20:51.646Z,16.70
2018-09-03T01:23:19.203Z,16.80
2018-09-03T01:25:46.570Z,16.70
2018-09-03T01:28:13.772Z,16.70
2018-09-03T01:30:41.014Z,16.70
2018-09-03T01:33:08.221Z,16.70
2018-09-03T01:35:35.509Z,16.70
2018-09-03T01:38:02.809Z,16.70
2018-09-03T01:40:30.045Z,16.60
2018-09-03T01:42:57.400Z,16.60
2018-09-03T01:45:24.672Z,16.60
2018-09-03T01:47:52.425Z,16.60
2018-09-03T01:50:19.947Z,16.60
2018-09-03T01:52:47.191Z,16.50
2018-09-03T01:55:14.421Z,16.60
2018-09-03T01:57:41.770Z,16.60
2018-09-03T02:00:09.037Z,16.50
2018-09-03T02:02:36.292Z,16.40
2018-09-03T02:05:03.586Z,16.30
2018-09-03T02:07:30.826Z,16.20
2018-09-03T02:09:58.303Z,16.20
2018-09-03T02:12:25.591Z,16.20
2018-09-03T02:14:53.545Z,16.20
2018-09-03T02:17:21.140Z,16.20
2018-09-03T02:19:48.898Z,16.20
2018-09-03T02:22:16.151Z,16.30
2018-09-03T02:24:43.382Z,16.30
2018-09-03T02:27:10.598Z,16.40
2018-09-03T02:29:37.838Z,16.40
2018-09-03T02:32:05.298Z,16.30
2018-09-03T02:34:32.602Z,16.40
2018-09-03T02:36:59.848Z,16.30
2018-09-03T02:39:27.153Z,16.30
2018-09-03T02:41:54.564Z,16.40
2018-09-03T02:44:22.095Z,16.50
2018-09-03T02:46:49.717Z,16.50
2018-09-03T02:49:16.980Z,16.50
2018-09-03T02:51:44.235Z,16.60
2018-09-03T02:54:11.494Z,16.50
2018-09-03T02:56:38.816Z,16.50
2018-09-03T02:59:06.154Z,16.50
2018-09-03T03:01:33.408Z,16.60
2018-09-03T03:04:00.669Z,16.70
2018-09-03T03:06:27.958Z,16.70
2018-09-03T03:08:55.561Z,16.60
2018-09-03T03:11:23.272Z,16.50
2018-09-03T03:13:51.064Z,16.60
2018-09-03T03:16:18.543Z,16.50
2018-09-03T03:18:45.798Z,16.50
2018-09-03T03:21:13.031Z,16.50
2018-09-03T03:23:40.272Z,16.50
2018-09-03T03:26:07.570Z,16.50
2018-09-03T03:28:34.827Z,16.50
2018-09-03T03:31:02.138Z,16.60
2018-09-03T03:33:29.430Z,16.60
2018-09-03T03:35:56.652Z,16.50
2018-09-03T03:38:24.070Z,16.60
2018-09-03T03:40:51.943Z,16.60
2018-09-03T03:43:19.337Z,16.60
2018-09-03T03:45:46.579Z,16.70
2018-09-03T03:48:13.833Z,16.70
2018-09-03T03:50:41.068Z,16.70
2018-09-03T03:53:08.359Z,16.60
2018-09-03T03:55:35.598Z,16.70
2018-09-03T03:58:02.826Z,16.70
2018-09-03T04:00:30.131Z,16.70
2018-09-03T04:02:57.418Z,16.70
2018-09-03T04:05:24.863Z,16.70
2018-09-03T04:07:52.410Z,16.60
2018-09-03T04:10:20.123Z,16.70
2018-09-03T04:12:57.056Z,16.70
2018-09-03T04:15:24.531Z,16.70
2018-09-03T04:17:52.363Z,16.70
2018-09-03T04:20:20.747Z,16.70
2018-09-03T04:22:48.136Z,16.70
2018-09-03T04:25:15.421Z,16.60
2018-09-03T04:27:42.679Z,16.50
2018-09-03T04:30:09.969Z,16.50
2018-09-03T04:32:37.296Z,16.50
2018-09-03T04:35:04.534Z,16.50
2018-09-03T04:37:31.767Z,16.40
2018-09-03T04:39:58.969Z,16.30
2018-09-03T04:42:26.351Z,16.30
2018-09-03T04:44:54.014Z,16.30
2018-09-03T04:47:22.182Z,16.30
2018-09-03T04:49:50.753Z,16.30
2018-09-03T04:52:18.714Z,16.30
2018-09-03T04:54:46.003Z,16.30
2018-09-03T04:57:13.214Z,16.30
2018-09-03T04:59:40.423Z,16.30
2018-09-03T05:02:07.674Z,16.40
2018-09-03T05:04:34.962Z,16.30
2018-09-03T05:07:02.203Z,16.40
2018-09-03T05:09:29.544Z,16.50
2018-09-03T05:11:56.880Z,16.40
2018-09-03T05:14:24.721Z,16.60
2018-09-03T05:16:52.528Z,16.60
2018-09-03T05:19:21.059Z,16.60
2018-09-03T05:21:48.811Z,16.60
2018-09-03T05:24:16.116Z,16.60
2018-09-03T05:26:43.923Z,16.70
2018-09-03T05:29:11.218Z,16.60
2018-09-03T05:31:38.445Z,16.60
2018-09-03T05:34:05.730Z,16.60
2018-09-03T05:36:32.999Z,16.60
2018-09-03T05:39:00.331Z,16.60
2018-09-03T05:41:27.603Z,16.60
2018-09-03T05:43:55.291Z,16.70
2018-09-03T05:46:22.882Z,16.60
2018-09-03T05:48:50.980Z,16.70
2018-09-03T05:51:18.438Z,16.80
2018-09-03T05:53:45.680Z,16.90
2018-09-03T05:56:13.014Z,16.90
2018-09-03T05:58:40.365Z,16.90
2018-09-03T06:01:07.633Z,16.90
2018-09-03T06:03:34.957Z,17.00
2018-09-03T06:06:02.559Z,16.90
2018-09-03T06:08:30.004Z,16.90
2018-09-03T06:10:57.657Z,17.00
2018-09-03T06:13:25.160Z,17.00
2018-09-03T06:15:52.924Z,17.10
2018-09-03T06:18:20.772Z,17.20
2018-09-03T06:20:48.260Z,17.30
2018-09-03T06:23:15.518Z,17.40
2018-09-03T06:25:42.852Z,17.50
2018-09-03T06:28:10.128Z,17.60
2018-09-03T06:30:37.432Z,17.70
2018-09-03T06:33:04.730Z,18.00
2018-09-03T06:35:32.016Z,18.10
2018-09-03T06:37:59.223Z,18.30
2018-09-03T06:40:26.566Z,18.20
2018-09-03T06:42:54.226Z,18.10
2018-09-03T06:45:22.012Z,18.20
2018-09-03T06:47:49.583Z,18.30
2018-09-03T06:50:16.936Z,18.20
2018-09-03T06:52:44.286Z,18.40
2018-09-03T06:55:11.731Z,18.30
2018-09-03T06:57:39.029Z,18.40
2018-09-03T07:00:06.538Z,18.30
2018-09-03T07:02:33.839Z,18.20
2018-09-03T07:05:01.054Z,18.40
2018-09-03T07:07:28.439Z,18.60
2018-09-03T07:09:55.837Z,18.60
2018-09-03T07:12:23.397Z,18.80
2018-09-03T07:14:50.920Z,18.70
2018-09-03T07:17:18.639Z,18.90
2018-09-03T07:19:46.034Z,18.80
2018-09-03T07:22:13.358Z,18.40
2018-09-03T07:24:40.586Z,18.60
2018-09-03T07:27:07.883Z,19.00
2018-09-03T07:29:35.174Z,19.10
2018-09-03T07:32:02.437Z,19.10
2018-09-03T07:34:29.729Z,19.00
2018-09-03T07:36:57.010Z,19.20
2018-09-03T07:39:25.097Z,19.00
2018-09-03T07:41:52.781Z,19.00
2018-09-03T07:44:20.744Z,18.90
2018-09-03T07:46:48.185Z,18.80
2018-09-03T07:49:15.459Z,18.70
2018-09-03T07:51:42.696Z,18.60
2018-09-03T07:54:09.970Z,18.50
2018-09-03T07:56:37.203Z,18.40
2018-09-03T07:59:04.649Z,18.50
2018-09-03T08:01:32.070Z,18.60
2018-09-03T08:03:59.429Z,18.60
2018-09-03T08:06:26.681Z,18.60
2018-09-03T08:08:54.275Z,18.70
2018-09-03T08:11:22.164Z,18.70
2018-09-03T08:13:49.676Z,18.90
2018-09-03T08:16:17.014Z,18.90
2018-09-03T08:18:44.322Z,18.90
2018-09-03T08:21:11.603Z,19.20
2018-09-03T08:23:38.805Z,19.70
2018-09-03T08:26:06.088Z,20.30
2018-09-03T08:28:33.377Z,20.80
2018-09-03T08:31:01.022Z,21.20
2018-09-03T08:33:28.296Z,21.50
2018-09-03T08:35:56.417Z,21.50
2018-09-03T08:38:23.963Z,21.10
2018-09-03T08:40:51.753Z,21.20
2018-09-03T08:43:19.301Z,21.40
2018-09-03T08:45:46.877Z,21.90
2018-09-03T08:48:14.165Z,22.10
2018-09-03T08:50:41.425Z,22.40
2018-09-03T08:53:08.684Z,22.70
2018-09-03T08:55:36.116Z,23.40
2018-09-03T08:58:03.526Z,24.00
2018-09-03T09:00:30.875Z,24.00
2018-09-03T09:02:58.338Z,24.30
2018-09-03T09:05:25.777Z,25.10
2018-09-03T09:07:53.322Z,25.40
2018-09-03T09:10:20.880Z,25.70
2018-09-03T09:12:48.212Z,26.30
2018-09-03T09:15:15.739Z,26.20
2018-09-03T09:17:43.256Z,25.60
2018-09-03T09:20:10.467Z,25.50
2018-09-03T09:22:37.682Z,25.10
2018-09-03T09:25:05.083Z,25.00
2018-09-03T09:27:32.367Z,25.20
2018-09-03T09:29:59.666Z,25.40
2018-09-03T09:32:26.988Z,25.00
2018-09-03T09:34:54.533Z,24.60
2018-09-03T09:37:21.965Z,24.60
2018-09-03T09:39:49.707Z,24.40
2018-09-03T09:42:17.043Z,24.50
2018-09-03T09:44:44.319Z,24.70
2018-09-03T09:47:11.662Z,24.40
2018-09-03T09:49:38.948Z,24.50
2018-09-03T09:52:06.209Z,23.60
2018-09-03T09:54:33.556Z,24.00
2018-09-03T09:57:00.846Z,23.10
2018-09-03T09:59:28.165Z,22.40
2018-09-03T10:01:55.710Z,22.30
2018-09-03T10:04:24.004Z,22.20
2018-09-03T10:06:51.572Z,22.70
2018-09-03T10:09:19.287Z,22.90
2018-09-03T10:11:46.505Z,23.70
2018-09-03T10:14:13.698Z,24.50
2018-09-03T10:16:40.945Z,24.80
2018-09-03T10:19:08.186Z,24.80
2018-09-03T10:21:35.423Z,25.00
2018-09-03T10:24:02.763Z,24.80
2018-09-03T10:26:30.062Z,25.30
2018-09-03T10:28:57.405Z,25.20
2018-09-03T10:31:25.100Z,25.30
2018-09-03T10:33:52.539Z,26.00
2018-09-03T10:36:19.998Z,26.10
2018-09-03T10:38:47.300Z,25.10
2018-09-03T10:41:14.602Z,25.30
2018-09-03T10:43:41.840Z,24.80
2018-09-03T10:46:09.087Z,24.20
2018-09-03T10:48:37.176Z,24.70
2018-09-03T10:51:04.493Z,25.40
2018-09-03T10:53:31.803Z,25.70
2018-09-03T10:55:59.031Z,26.30
2018-09-03T10:58:26.350Z,26.30
2018-09-03T11:00:53.628Z,25.80
2018-09-03T11:03:21.184Z,25.30
2018-09-03T11:05:48.614Z,25.60
2018-09-03T11:08:15.907Z,25.50
2018-09-03T11:10:43.159Z,25.50
2018-09-03T11:13:10.449Z,25.40
2018-09-03T11:15:37.650Z,25.60
2018-09-03T11:18:04.962Z,25.90
2018-09-03T11:20:32.215Z,26.00
2018-09-03T11:22:59.556Z,25.60
2018-09-03T11:25:28.994Z,25.80
2018-09-03T11:27:56.321Z,24.90
2018-09-03T11:30:24.729Z,24.60
2018-09-03T11:32:58.487Z,24.10
2018-09-03T11:35:26.375Z,23.90
2018-09-03T11:37:53.874Z,23.60
2018-09-03T11:40:22.580Z,24.00
2018-09-03T11:42:50.866Z,23.60
2018-09-03T11:45:19.887Z,23.70
2018-09-03T11:47:47.855Z,23.90
2018-09-03T11:50:15.868Z,24.20
2018-09-03T11:52:43.224Z,24.50
2018-09-03T11:55:10.791Z,24.20
2018-09-03T11:57:38.010Z,24.30
2018-09-03T12:00:07.049Z,24.30
2018-09-03T12:02:34.260Z,24.20
2018-09-03T12:05:01.520Z,24.10
2018-09-03T12:07:28.798Z,24.30
2018-09-03T12:09:56.094Z,24.20
2018-09-03T12:12:23.994Z,23.80
2018-09-03T12:14:54.769Z,23.60
2018-09-03T12:17:22.628Z,23.00
2018-09-03T12:19:50.282Z,22.90
2018-09-03T12:22:17.627Z,22.70
2018-09-03T12:24:44.990Z,22.70
2018-09-03T12:27:12.257Z,22.80
2018-09-03T12:29:39.534Z,22.80
2018-09-03T12:32:06.909Z,22.80
2018-09-03T12:34:34.429Z,22.60
2018-09-03T12:37:01.736Z,22.40
2018-09-03T12:39:29.031Z,22.40
2018-09-03T12:41:56.524Z,22.30
2018-09-03T12:44:24.011Z,22.20
2018-09-03T12:46:51.919Z,22.20
2018-09-03T12:49:20.053Z,22.20
2018-09-03T12:51:47.252Z,22.40
2018-09-03T12:54:14.499Z,22.30
2018-09-03T12:56:41.823Z,22.50
2018-09-03T12:59:09.083Z,22.70
2018-09-03T13:01:36.198Z,22.70
2018-09-03T13:04:03.377Z,22.60
2018-09-03T13:06:30.498Z,22.50
2018-09-03T13:08:57.620Z,22.90
2018-09-03T13:11:24.887Z,23.10
2018-09-03T13:13:52.047Z,23.10
2018-09-03T13:16:19.384Z,22.90
2018-09-03T13:18:46.607Z,22.90
2018-09-03T13:21:13.698Z,22.80
2018-09-03T13:23:40.955Z,22.90
2018-09-03T13:26:08.083Z,22.60
2018-09-03T13:28:35.214Z,22.90
2018-09-03T13:31:02.376Z,22.90
2018-09-03T13:33:29.497Z,23.10
2018-09-03T13:35:56.621Z,23.10
2018-09-03T13:38:23.787Z,23.30
2018-09-03T13:40:51.034Z,23.40
2018-09-03T13:43:18.180Z,23.30
2018-09-03T13:45:45.330Z,23.20
2018-09-03T13:48:12.925Z,23.00
2018-09-03T13:50:40.011Z,23.20
2018-09-03T13:53:07.150Z,23.30
2018-09-03T13:55:34.444Z,23.50
2018-09-03T13:58:01.560Z,23.40
2018-09-03T14:00:28.686Z,23.20
2018-09-03T14:02:55.833Z,22.80
2018-09-03T14:05:23.014Z,22.60
2018-09-03T14:07:50.133Z,22.90
2018-09-03T14:10:17.332Z,22.80
2018-09-03T14:12:44.455Z,23.10
2018-09-03T14:15:11.679Z,23.00
2018-09-03T14:17:38.870Z,23.20
2018-09-03T14:20:06.152Z,23.50
2018-09-03T14:22:33.232Z,23.60
2018-09-03T14:25:00.523Z,23.30
2018-09-03T14:27:27.786Z,23.50
2018-09-03T14:29:54.951Z,23.20
2018-09-03T14:32:22.328Z,23.10
2018-09-03T14:34:50.432Z,22.90
2018-09-03T14:37:17.571Z,22.90
2018-09-03T14:39:44.770Z,22.90
2018-09-03T14:42:11.869Z,22.80
2018-09-03T14:44:38.988Z,22.50
2018-09-03T14:47:06.134Z,22.40
2018-09-03T14:49:33.270Z,22.10
2018-09-03T14:52:00.429Z,22.10
2018-09-03T14:54:27.561Z,22.20
2018-09-03T14:56:54.821Z,22.40
2018-09-03T14:59:21.971Z,22.40
2018-09-03T15:01:49.115Z,22.50
2018-09-03T15:04:16.291Z,22.30
2018-09-03T15:06:43.453Z,22.30
2018-09-03T15:09:11.000Z,22.40
2018-09-03T15:11:38.130Z,22.30
2018-09-03T15:14:05.418Z,22.50
2018-09-03T15:16:33.298Z,22.50
2018-09-03T15:19:02.003Z,22.20
2018-09-03T15:21:29.129Z,22.20
2018-09-03T15:23:56.237Z,22.10
2018-09-03T15:26:23.650Z,22.10
2018-09-03T15:28:51.080Z,22.10
2018-09-03T15:31:18.557Z,22.10
2018-09-03T15:33:45.791Z,22.00
2018-09-03T15:36:12.993Z,22.10
2018-09-03T15:38:40.114Z,22.10
2018-09-03T15:41:07.707Z,22.10
2018-09-03T15:43:34.939Z,22.10
2018-09-03T15:46:02.173Z,22.00
2018-09-03T15:48:29.355Z,22.00
2018-09-03T15:50:56.573Z,21.90
2018-09-03T15:53:24.690Z,21.90
2018-09-03T15:55:51.878Z,21.90
2018-09-03T15:58:18.997Z,21.90
2018-09-03T16:00:46.538Z,22.10
2018-09-03T16:03:13.737Z,22.00
2018-09-03T16:05:40.863Z,21.80
2018-09-03T16:08:08.138Z,21.90
2018-09-03T16:10:35.257Z,22.00
2018-09-03T16:13:02.567Z,22.10
2018-09-03T16:15:29.674Z,22.00
2018-09-03T16:17:56.843Z,22.00
2018-09-03T16:20:24.062Z,22.00
2018-09-03T16:22:51.260Z,21.80
2018-09-03T16:25:18.426Z,21.70
2018-09-03T16:27:45.636Z,21.70
2018-09-03T16:30:12.702Z,21.70
2018-09-03T16:32:39.830Z,21.60
2018-09-03T16:35:06.949Z,21.70
2018-09-03T16:37:34.079Z,21.70
2018-09-03T16:40:01.207Z,21.60
2018-09-03T16:42:28.523Z,21.60
2018-09-03T16:44:55.715Z,21.60
2018-09-03T16:47:22.838Z,21.60
2018-09-03T16:49:49.990Z,21.50
2018-09-03T16:52:17.094Z,21.40
2018-09-03T16:54:44.241Z,21.30
2018-09-03T16:57:11.392Z,21.20
2018-09-03T16:59:38.578Z,21.10
2018-09-03T17:02:05.925Z,21.10
2018-09-03T17:04:33.094Z,21.00
2018-09-03T17:07:00.259Z,21.00
2018-09-03T17:09:27.432Z,21.00
2018-09-03T17:11:54.641Z,20.90
2018-09-03T17:14:21.816Z,21.00
2018-09-03T17:16:48.970Z,21.00
2018-09-03T17:19:16.127Z,21.00
2018-09-03T17:21:43.273Z,21.00
2018-09-03T17:24:10.390Z,20.90
2018-09-03T17:26:37.514Z,20.90
2018-09-03T17:29:04.690Z,20.90
2018-09-03T17:31:31.866Z,20.70
2018-09-03T17:33:58.991Z,20.70
2018-09-03T17:36:26.126Z,20.70
2018-09-03T17:38:53.421Z,20.50
2018-09-03T17:41:20.565Z,20.50
2018-09-03T17:43:47.678Z,20.50
2018-09-03T17:46:14.794Z,20.40
2018-09-03T17:48:41.933Z,20.20
2018-09-03T17:51:09.097Z,20.10
2018-09-03T17:53:36.223Z,20.10
2018-09-03T17:56:03.611Z,20.00
2018-09-03T17:58:31.042Z,19.90
2018-09-03T18:00:58.599Z,19.80
2018-09-03T18:03:25.770Z,19.90
2018-09-03T18:05:53.022Z,19.90
2018-09-03T18:08:20.805Z,19.80
2018-09-03T18:10:47.894Z,19.90
2018-09-03T18:13:15.023Z,19.90
2018-09-03T18:15:42.151Z,19.80
2018-09-03T18:18:09.265Z,19.80
2018-09-03T18:20:36.383Z,19.80
2018-09-03T18:23:03.534Z,19.60
2018-09-03T18:25:30.705Z,19.60
2018-09-03T18:27:57.821Z,19.50
2018-09-03T18:30:25.028Z,19.60
2018-09-03T18:32:52.265Z,19.60
2018-09-03T18:35:19.399Z,19.50
2018-09-03T18:37:46.561Z,19.50
2018-09-03T18:40:13.706Z,19.60
2018-09-03T18:42:40.862Z,19.60
2018-09-03T18:45:08.334Z,19.60
2018-09-03T18:47:35.503Z,19.60
2018-09-03T18:50:02.679Z,19.60
2018-09-03T18:52:29.853Z,19.60
2018-09-03T18:54:56.993Z,19.60
2018-09-03T18:57:24.119Z,19.50
2018-09-03T18:59:51.343Z,19.40
2018-09-03T19:02:18.493Z,19.40
2018-09-03T19:04:45.921Z,19.40
2018-09-03T19:07:13.062Z,19.40
2018-09-03T19:09:40.256Z,19.30
2018-09-03T19:12:07.462Z,19.30
2018-09-03T19:14:34.556Z,19.30
2018-09-03T19:17:01.706Z,19.30
2018-09-03T19:19:28.866Z,19.20
2018-09-03T19:21:56.035Z,19.20
2018-09-03T19:24:23.171Z,19.20
2018-09-03T19:26:50.405Z,19.20
2018-09-03T19:29:17.686Z,19.30
2018-09-03T19:31:44.819Z,19.40
2018-09-03T19:34:11.950Z,19.40
2018-09-03T19:36:39.183Z,19.40
2018-09-03T19:39:06.262Z,19.30
2018-09-03T19:41:33.383Z,19.40
2018-09-03T19:44:00.507Z,19.30
2018-09-03T19:46:27.677Z,19.30
2018-09-03T19:48:54.888Z,19.30
2018-09-03T19:51:22.242Z,19.40
2018-09-03T19:53:49.377Z,19.30
2018-09-03T19:56:16.549Z,19.30
2018-09-03T19:58:43.722Z,19.20
2018-09-03T20:01:10.849Z,19.30
2018-09-03T20:03:38.082Z,19.10
2018-09-03T20:06:05.280Z,19.10
2018-09-03T20:08:32.922Z,19.10
2018-09-03T20:11:00.165Z,19.10
2018-09-03T20:13:27.289Z,19.10
2018-09-03T20:15:54.465Z,19.00
2018-09-03T20:18:21.633Z,19.00
2018-09-03T20:20:48.759Z,19.00
2018-09-03T20:23:15.946Z,18.90
2018-09-03T20:25:43.041Z,18.90
2018-09-03T20:28:10.183Z,18.90
2018-09-03T20:30:37.424Z,18.90
2018-09-03T20:33:04.531Z,19.00
2018-09-03T20:35:31.688Z,19.00
2018-09-03T20:37:58.798Z,19.10
2018-09-03T20:40:25.938Z,19.10
2018-09-03T20:42:53.105Z,19.10
2018-09-03T20:45:20.300Z,19.00
2018-09-03T20:47:47.475Z,19.00
2018-09-03T20:50:14.668Z,19.00
2018-09-03T20:52:41.837Z,19.00
2018-09-03T20:55:09.040Z,18.90
2018-09-03T20:57:36.197Z,18.90
2018-09-03T21:00:03.510Z,18.90
2018-09-03T21:02:30.637Z,18.80
2018-09-03T21:04:57.767Z,18.90
2018-09-03T21:07:24.964Z,18.90
2018-09-03T21:09:52.591Z,18.80
2018-09-03T21:12:19.881Z,18.80
2018-09-03T21:14:47.054Z,18.80
2018-09-03T21:17:14.181Z,18.80
2018-09-03T21:19:41.330Z,18.80
2018-09-03T21:22:08.467Z,18.90
2018-09-03T21:24:35.774Z,18.80
2018-09-03T21:27:02.883Z,18.80
2018-09-03T21:29:30.022Z,18.90
2018-09-03T21:31:57.173Z,18.80
2018-09-03T21:34:24.334Z,18.80
2018-09-03T21:36:51.508Z,18.80
2018-09-03T21:39:18.667Z,18.80
2018-09-03T21:41:45.808Z,18.80
2018-09-03T21:44:12.991Z,18.80
2018-09-03T21:46:40.209Z,18.80
2018-09-03T21:49:07.429Z,18.80
2018-09-03T21:51:34.670Z,18.80
2018-09-03T21:54:01.855Z,18.80
2018-09-03T21:56:29.074Z,18.80
2018-09-03T21:58:56.398Z,18.80
2018-09-03T22:01:23.716Z,18.90
2018-09-03T22:03:50.980Z,18.80
2018-09-03T22:06:18.185Z,18.90
2018-09-03T22:08:45.391Z,18.80
2018-09-03T22:11:12.631Z,18.80
2018-09-03T22:13:39.926Z,18.70
2018-09-03T22:16:08.006Z,18.70
2018-09-03T22:18:36.423Z,18.70
2018-09-03T22:21:03.790Z,18.60
2018-09-03T22:23:31.050Z,18.60
2018-09-03T22:25:58.362Z,18.50
2018-09-03T22:28:25.590Z,18.50
2018-09-03T22:30:52.775Z,18.50
2018-09-03T22:33:19.979Z,18.40
2018-09-03T22:35:47.193Z,18.40
2018-09-03T22:38:14.443Z,18.40
2018-09-03T22:40:42.725Z,18.40
2018-09-03T22:43:09.927Z,18.30
2018-09-03T22:45:37.105Z,18.20
2018-09-03T22:48:04.858Z,18.20
2018-09-03T22:50:32.312Z,18.10
2018-09-03T22:52:59.557Z,18.00
2018-09-03T22:55:26.905Z,17.90
2018-09-03T22:57:54.066Z,17.90
2018-09-03T23:00:21.251Z,17.90
2018-09-03T23:02:48.477Z,17.90
2018-09-03T23:05:15.714Z,17.90
2018-09-03T23:07:43.047Z,17.80
2018-09-03T23:10:10.736Z,17.80
2018-09-03T23:12:38.082Z,17.90
2018-09-03T23:15:05.952Z,18.00
2018-09-03T23:17:33.483Z,18.10
2018-09-03T23:20:00.691Z,18.10
2018-09-03T23:22:27.854Z,18.20
2018-09-03T23:24:55.398Z,18.20
2018-09-03T23:27:22.709Z,18.10
2018-09-03T23:29:49.890Z,18.20
2018-09-03T23:32:17.132Z,18.20
2018-09-03T23:34:44.515Z,18.10
2018-09-03T23:37:11.871Z,18.10
2018-09-03T23:39:39.177Z,18.10
2018-09-03T23:42:06.357Z,18.10
2018-09-03T23:44:33.611Z,18.10
2018-09-03T23:47:00.837Z,18.10
2018-09-03T23:49:28.083Z,18.10
2018-09-03T23:51:55.434Z,18.10
2018-09-03T23:54:22.623Z,18.20
2018-09-03T23:56:49.903Z,18.10
2018-09-03T23:59:17.146Z,18.20
